Geraldton Greenstone Regional Airport
CYGQ : now visible

Airfield :











YOU CAN JOIN US ON...

 
LOGIN :

Register | Disclaimer

   EN    FR    IT 

 









Legend :    VFR   Marginal VFR   IFR   Intensive IFR   Very Intensive IFR
Visi :
Ceiling :
>= 8 km
>= 3000ft
5 to 8 km
1000 to 3000 ft
1500m to 5 km
500 to 1000 ft
800 to 1500m
200 to 500 ft
< 800m
< 200 ft
Symbols :   Thunderstorms  Fog  Heavy snow  Heavy precipitations  Wind > 20 kt






- Airport Elevation : 1144 ft
- IATA code : YGQ


CYGQ - Geraldton Greenstone Regional

CURRENT METAR :
  • 191600Z 31012G17KT 15SM FEW019 SCT025 M22/M29 A3038 RMK CF1SC2 SLP330

EXPIRED METARs :
  • 191500Z 30008G16KT 15SM FEW024 M23/M29 A3037 RMK SC1 SC TR SLP328
  • 191400Z 27004KT 240V310 15SM SKC M24/M29 A3035 RMK SLP321

TAF TAF CYGQ
Valid from the 19 at 14:00 until the 20 at 02:00 UTC


191338Z 1914/2002 28005KT P6SM FEW020
TEMPO 1914/2002 BKN020
PROB30 1914/2002 3SM IC RMK NXT FCST BY 192000Z



MET'MAP, your aeronautical weather chart ! - Copyright ORBIFLY December 2007 - Disclaimer

ORBIFLY MET'MAP TEAM :

Programming & Development : Alexandra Zaïnal
Concept & original design : Baudouin d'Aumeries
Assistance for programming : Marc-Olivier Méhu
Technical & hardware support : Manuel Goepfert

Contact : metmap@orbifly.com




SOURCES & CREDITS :

   NOAA       Earth
Advisory